Time;durP1;ratioP1;P1;durP2;ratioP2;P2;SDS_P1;SDS_P2;PMS_P1;PMS_P2;Temp;Humidity;BMP_temperature;BMP_pressure;BME280_temperature;BME280_humidity;BME280_pressure;Samples;Min_cycle;Max_cycle;Signal;HPM_P1;HPM_P2
2021/07/18 00:01:05;;;;;;;4.60;3.40;;;18.80;99.90;;;;;;5096095;28;20430;-81
2021/07/18 00:03:31;;;;;;;4.07;3.10;;;18.80;99.90;;;;;;5079141;28;20434;-81
2021/07/18 00:05:56;;;;;;;5.13;4.00;;;18.70;99.90;;;;;;5076453;28;20463;-83
2021/07/18 00:08:22;;;;;;;7.10;3.83;;;18.70;99.90;;;;;;5085125;28;20242;-82
2021/07/18 00:10:49;;;;;;;5.80;3.40;;;18.60;99.90;;;;;;5082729;28;20215;-83
2021/07/18 00:13:15;;;;;;;5.10;4.00;;;18.60;99.90;;;;;;5100654;28;20188;-81
2021/07/18 00:15:41;;;;;;;5.00;3.77;;;18.50;99.90;;;;;;5100226;28;20499;-80
2021/07/18 00:18:08;;;;;;;4.67;3.67;;;18.50;99.90;;;;;;5062871;28;20212;-82
2021/07/18 00:20:34;;;;;;;4.80;4.30;;;18.50;99.90;;;;;;5095246;28;20970;-82
2021/07/18 00:23:00;;;;;;;6.10;3.87;;;18.50;99.90;;;;;;5082681;28;20497;-83
2021/07/18 00:25:26;;;;;;;6.03;3.80;;;18.40;99.90;;;;;;5097569;28;20521;-81
2021/07/18 00:27:51;;;;;;;4.27;3.87;;;18.40;99.90;;;;;;5100339;28;20176;-82
2021/07/18 00:30:18;;;;;;;4.97;4.10;;;18.40;99.90;;;;;;5100823;28;20708;-81
2021/07/18 00:32:43;;;;;;;6.63;4.20;;;18.40;99.90;;;;;;5101374;28;20196;-79
2021/07/18 00:35:09;;;;;;;5.03;4.20;;;18.30;99.90;;;;;;5081843;28;20462;-82
2021/07/18 00:37:36;;;;;;;6.57;4.43;;;18.30;99.90;;;;;;5077915;28;20200;-81
2021/07/18 00:40:04;;;;;;;10.60;4.53;;;18.20;99.90;;;;;;5097700;28;20429;-81
2021/07/18 00:42:29;;;;;;;5.07;4.40;;;18.20;99.90;;;;;;5082276;28;20505;-83
2021/07/18 00:44:55;;;;;;;5.40;4.07;;;18.10;99.90;;;;;;5077894;28;20513;-81
2021/07/18 00:47:22;;;;;;;4.70;4.30;;;18.10;99.90;;;;;;5082616;28;20187;-82
2021/07/18 00:49:49;;;;;;;4.30;3.90;;;18.10;99.90;;;;;;5081351;28;20196;-82
2021/07/18 00:52:15;;;;;;;4.80;4.40;;;18.10;99.90;;;;;;5099443;28;20540;-81
2021/07/18 00:54:41;;;;;;;3.73;3.43;;;18.10;99.90;;;;;;5057981;28;20993;-82
2021/07/18 00:57:07;;;;;;;4.20;3.80;;;18.00;99.90;;;;;;5074933;28;20267;-81
2021/07/18 00:59:35;;;;;;;6.17;4.40;;;18.00;99.90;;;;;;5076999;28;20415;-80
2021/07/18 01:02:01;;;;;;;5.10;4.60;;;17.90;99.90;;;;;;5082366;28;20835;-80
2021/07/18 01:04:27;;;;;;;4.80;4.30;;;17.90;99.90;;;;;;5083700;28;20443;-80
2021/07/18 01:06:53;;;;;;;4.70;4.30;;;17.80;99.90;;;;;;5097996;28;20476;-81
2021/07/18 01:09:20;;;;;;;5.50;4.93;;;17.80;99.90;;;;;;5070013;28;20552;-81
2021/07/18 01:11:46;;;;;;;7.53;4.50;;;17.80;99.90;;;;;;5082696;28;20454;-80
2021/07/18 01:14:12;;;;;;;6.67;4.33;;;17.70;99.90;;;;;;5100185;28;20418;-82
2021/07/18 01:16:38;;;;;;;4.33;3.93;;;17.70;99.90;;;;;;5099916;28;20188;-81
2021/07/18 01:19:04;;;;;;;5.13;4.40;;;17.60;99.90;;;;;;5079786;28;20420;-81
2021/07/18 01:21:31;;;;;;;7.63;4.57;;;17.60;99.90;;;;;;5093763;28;20600;-82
2021/07/18 01:23:57;;;;;;;4.73;4.23;;;17.60;99.90;;;;;;5079124;28;20446;-83
2021/07/18 01:26:24;;;;;;;5.17;4.63;;;17.60;99.90;;;;;;5101580;28;20451;-81
2021/07/18 01:28:49;;;;;;;5.23;4.67;;;17.60;99.90;;;;;;5079178;28;20424;-82
2021/07/18 01:31:16;;;;;;;6.03;4.60;;;17.60;99.90;;;;;;5090734;28;21155;-83
2021/07/18 01:33:41;;;;;;;6.43;5.33;;;17.50;99.90;;;;;;5099849;28;20250;-83
2021/07/18 01:36:07;;;;;;;5.50;4.60;;;17.50;99.90;;;;;;5064507;28;20986;-83
2021/07/18 01:38:33;;;;;;;5.40;4.90;;;17.40;99.90;;;;;;5096046;28;20206;-83
2021/07/18 01:40:58;;;;;;;6.50;4.20;;;17.40;99.90;;;;;;5081670;28;20214;-82
2021/07/18 01:43:24;;;;;;;7.27;4.73;;;17.40;99.90;;;;;;5083939;28;20223;-80
2021/07/18 01:45:51;;;;;;;6.10;4.73;;;17.40;99.90;;;;;;5045573;28;20221;-80
2021/07/18 01:48:17;;;;;;;6.83;4.90;;;17.40;99.90;;;;;;5081380;28;20299;-83
2021/07/18 01:50:43;;;;;;;6.53;4.60;;;17.30;99.90;;;;;;5080388;28;20520;-81
2021/07/18 01:53:08;;;;;;;5.07;4.57;;;17.30;99.90;;;;;;5074252;28;20177;-82
2021/07/18 01:55:34;;;;;;;9.40;4.83;;;17.20;99.90;;;;;;5096831;28;20215;-82
2021/07/18 01:58:00;;;;;;;6.97;4.77;;;17.20;99.90;;;;;;5099417;28;20214;-83
2021/07/18 02:00:26;;;;;;;4.90;4.40;;;17.10;99.90;;;;;;5099529;28;20966;-80
2021/07/18 02:02:52;;;;;;;5.60;4.37;;;17.10;99.90;;;;;;5059873;28;20409;-82
2021/07/18 02:05:20;;;;;;;4.90;4.40;;;17.00;99.90;;;;;;5055781;28;20208;-82
2021/07/18 02:07:46;;;;;;;4.70;4.30;;;16.90;99.90;;;;;;5097810;28;20430;-81
2021/07/18 02:10:14;;;;;;;4.90;3.90;;;16.90;99.90;;;;;;5094107;28;21205;-82
2021/07/18 02:12:39;;;;;;;4.73;4.23;;;16.80;99.90;;;;;;5077839;28;20428;-82
2021/07/18 02:15:08;;;;;;;4.23;3.83;;;16.80;99.90;;;;;;5091547;28;20430;-82
2021/07/18 02:17:34;;;;;;;4.73;4.10;;;16.70;99.90;;;;;;5078052;28;20264;-83
2021/07/18 02:20:00;;;;;;;5.23;4.30;;;16.70;99.90;;;;;;5081663;28;20433;-82
2021/07/18 02:22:40;;;;;;;4.27;3.87;;;16.70;99.90;;;;;;5089149;28;20422;-81
2021/07/18 02:25:06;;;;;;;11.43;5.20;;;16.60;99.90;;;;;;5087743;28;20212;-82
2021/07/18 02:27:32;;;;;;;5.00;4.40;;;16.50;99.90;;;;;;5099248;28;20411;-81
2021/07/18 02:29:57;;;;;;;6.03;4.40;;;16.50;99.90;;;;;;5063356;28;20460;-82
2021/07/18 02:32:23;;;;;;;5.10;4.60;;;16.50;99.90;;;;;;5063822;28;20219;-81
2021/07/18 02:34:49;;;;;;;4.97;3.77;;;16.50;99.90;;;;;;5050634;28;20207;-83
2021/07/18 02:37:14;;;;;;;6.03;4.50;;;16.50;99.90;;;;;;5068981;28;20189;-81
2021/07/18 02:39:40;;;;;;;4.40;3.77;;;16.40;99.90;;;;;;5094187;28;20196;-83
2021/07/18 02:42:06;;;;;;;3.80;3.43;;;16.40;99.90;;;;;;5080724;28;20201;-83
2021/07/18 02:44:32;;;;;;;5.63;4.47;;;16.30;99.90;;;;;;5063731;28;20216;-83
2021/07/18 02:46:57;;;;;;;5.90;4.80;;;16.20;99.90;;;;;;5078517;28;20445;-81
2021/07/18 02:49:23;;;;;;;5.23;4.50;;;16.30;99.90;;;;;;5091866;28;20430;-81
2021/07/18 02:51:49;;;;;;;6.70;4.53;;;16.20;99.90;;;;;;5095430;28;20249;-82
2021/07/18 02:54:15;;;;;;;6.83;5.00;;;16.20;99.90;;;;;;5059910;28;20193;-81
2021/07/18 02:56:40;;;;;;;5.43;4.30;;;16.20;99.90;;;;;;5073404;28;20211;-83
2021/07/18 02:59:06;;;;;;;4.40;3.97;;;16.10;99.90;;;;;;5057080;28;20796;-82
2021/07/18 03:01:31;;;;;;;6.73;4.10;;;16.10;99.90;;;;;;5098847;28;20269;-80
2021/07/18 03:03:57;;;;;;;3.90;3.60;;;16.10;99.90;;;;;;5081306;28;20196;-79
2021/07/18 03:06:23;;;;;;;6.13;4.50;;;16.10;99.90;;;;;;5063607;28;20291;-81
2021/07/18 03:08:49;;;;;;;4.90;4.10;;;16.10;99.90;;;;;;5067523;28;20197;-81
2021/07/18 03:11:14;;;;;;;4.60;4.20;;;16.00;99.90;;;;;;5063371;28;20223;-81
2021/07/18 03:13:40;;;;;;;4.60;4.13;;;16.00;99.90;;;;;;5079443;28;20207;-82
2021/07/18 03:16:05;;;;;;;5.00;4.30;;;16.00;99.90;;;;;;5096371;28;20224;-82
2021/07/18 03:18:31;;;;;;;4.90;4.40;;;16.00;99.90;;;;;;5043397;28;20196;-82
2021/07/18 03:20:57;;;;;;;6.90;4.53;;;16.00;99.90;;;;;;5060040;28;20527;-81
2021/07/18 03:23:22;;;;;;;5.30;4.70;;;15.90;99.90;;;;;;5061226;28;20597;-82
2021/07/18 03:25:48;;;;;;;5.60;4.50;;;15.90;99.90;;;;;;5071341;28;20205;-81
2021/07/18 03:28:14;;;;;;;7.47;4.67;;;15.90;99.90;;;;;;5080497;28;20244;-82
2021/07/18 03:30:39;;;;;;;4.77;4.23;;;15.80;99.90;;;;;;5089665;28;20874;-82
2021/07/18 03:33:05;;;;;;;4.87;4.47;;;15.80;99.90;;;;;;5097550;28;20180;-82
2021/07/18 03:35:31;;;;;;;4.67;4.27;;;15.80;99.90;;;;;;5097250;28;20204;-80
2021/07/18 03:37:57;;;;;;;5.50;4.40;;;15.70;99.90;;;;;;5060684;28;20181;-80
2021/07/18 03:40:24;;;;;;;5.63;5.00;;;15.70;99.90;;;;;;5065389;28;20193;-82
2021/07/18 03:42:50;;;;;;;5.40;4.70;;;15.70;99.90;;;;;;5077708;28;20177;-80
2021/07/18 03:45:15;;;;;;;6.43;4.60;;;15.60;99.90;;;;;;5087642;28;20487;-81
2021/07/18 03:47:42;;;;;;;6.50;4.33;;;15.60;99.90;;;;;;5074274;28;20184;-81
2021/07/18 03:50:08;;;;;;;3.80;3.50;;;15.60;99.90;;;;;;5070593;28;20252;-82
2021/07/18 03:52:34;;;;;;;5.37;4.73;;;15.60;99.90;;;;;;5071192;28;20430;-81
2021/07/18 03:55:00;;;;;;;6.10;4.77;;;15.60;99.90;;;;;;5100374;28;20464;-83
2021/07/18 03:57:26;;;;;;;5.93;4.83;;;15.60;99.90;;;;;;5104285;28;20180;-82
2021/07/18 03:59:51;;;;;;;5.43;4.77;;;15.60;99.90;;;;;;5082940;28;20230;-81
2021/07/18 04:02:17;;;;;;;5.20;4.50;;;15.70;99.90;;;;;;5096815;28;20258;-81
2021/07/18 04:04:43;;;;;;;6.57;5.03;;;15.60;99.90;;;;;;5080019;28;20730;-80
2021/07/18 04:07:09;;;;;;;7.90;4.60;;;15.70;99.90;;;;;;5043353;28;20438;-80
2021/07/18 04:09:34;;;;;;;4.53;4.13;;;15.60;99.90;;;;;;5086646;28;20180;-82
2021/07/18 04:12:00;;;;;;;6.30;5.33;;;15.70;99.90;;;;;;5085605;28;20192;-82
2021/07/18 04:14:26;;;;;;;6.20;5.53;;;15.70;99.90;;;;;;5069127;28;20201;-83
2021/07/18 04:16:51;;;;;;;7.67;5.77;;;15.70;99.90;;;;;;5103861;28;20211;-80
2021/07/18 04:19:17;;;;;;;8.23;5.57;;;15.70;99.90;;;;;;5073096;28;20886;-82
2021/07/18 04:21:42;;;;;;;8.17;5.93;;;15.80;99.90;;;;;;5075273;28;20195;-80
2021/07/18 04:24:08;;;;;;;8.97;6.00;;;15.80;99.90;;;;;;5104169;28;20184;-79
2021/07/18 04:26:34;;;;;;;7.17;6.37;;;15.90;99.90;;;;;;5083706;28;20203;-81
2021/07/18 04:29:00;;;;;;;7.73;6.97;;;15.90;99.90;;;;;;5104916;28;20192;-82
2021/07/18 04:31:25;;;;;;;9.10;6.60;;;16.00;99.90;;;;;;5069120;28;20257;-81
2021/07/18 04:33:51;;;;;;;7.97;7.23;;;16.10;99.90;;;;;;5069524;28;20214;-81
2021/07/18 04:36:17;;;;;;;8.33;6.93;;;16.10;99.90;;;;;;5101923;28;20230;-82
2021/07/18 04:38:43;;;;;;;9.20;6.90;;;16.20;99.90;;;;;;5082172;28;20193;-81
2021/07/18 04:41:09;;;;;;;8.80;7.87;;;16.30;99.90;;;;;;5094853;28;20470;-80
2021/07/18 04:43:35;;;;;;;8.60;6.80;;;16.40;99.90;;;;;;5082194;28;20177;-83
2021/07/18 04:46:00;;;;;;;8.50;7.30;;;16.50;99.90;;;;;;5077360;28;20211;-81
2021/07/18 04:48:26;;;;;;;12.60;7.70;;;16.50;99.90;;;;;;5085376;28;20180;-82
2021/07/18 04:50:52;;;;;;;8.07;6.87;;;16.60;99.90;;;;;;5083636;28;20283;-82
2021/07/18 04:53:17;;;;;;;9.03;7.70;;;16.70;99.90;;;;;;5076316;28;20230;-81
2021/07/18 04:55:43;;;;;;;6.83;6.00;;;16.80;99.90;;;;;;5095557;28;20223;-81
2021/07/18 04:58:09;;;;;;;11.27;7.10;;;16.80;99.90;;;;;;5082191;28;20184;-81
2021/07/18 05:00:34;;;;;;;8.40;7.23;;;16.90;99.90;;;;;;5075422;28;20192;-81
2021/07/18 05:03:00;;;;;;;8.00;7.03;;;17.00;99.90;;;;;;5081913;28;20192;-82
2021/07/18 05:05:26;;;;;;;7.23;6.57;;;17.00;99.90;;;;;;5065096;28;20208;-83
2021/07/18 05:07:54;;;;;;;9.47;7.37;;;17.10;99.90;;;;;;5094389;28;20219;-82
2021/07/18 05:10:22;;;;;;;9.03;6.37;;;17.10;99.90;;;;;;5093967;28;21030;-82
2021/07/18 05:12:49;;;;;;;10.80;7.60;;;17.20;99.90;;;;;;5081443;28;20459;-81
2021/07/18 05:15:16;;;;;;;8.90;7.37;;;17.20;99.90;;;;;;5081301;28;20810;-82
2021/07/18 05:17:41;;;;;;;9.23;7.27;;;17.30;99.90;;;;;;5091665;28;20416;-82
2021/07/18 05:20:08;;;;;;;8.60;7.60;;;17.40;99.90;;;;;;5091416;28;20410;-83
2021/07/18 05:22:35;;;;;;;8.23;6.50;;;17.40;99.90;;;;;;5086444;28;20184;-81
2021/07/18 05:25:01;;;;;;;7.10;6.40;;;17.40;99.90;;;;;;5088832;28;20435;-81
2021/07/18 05:27:27;;;;;;;8.97;6.90;;;17.50;99.90;;;;;;5064120;28;20509;-82
2021/07/18 05:29:53;;;;;;;8.97;7.40;;;17.60;99.90;;;;;;5097549;28;20980;-83
2021/07/18 05:32:18;;;;;;;9.03;6.90;;;17.60;99.90;;;;;;5064481;28;20274;-83
2021/07/18 05:34:44;;;;;;;8.10;6.73;;;17.60;99.90;;;;;;5096639;28;20208;-82
2021/07/18 05:37:11;;;;;;;7.97;6.87;;;17.70;99.90;;;;;;5096259;28;20235;-81
2021/07/18 05:39:36;;;;;;;8.37;6.70;;;17.60;99.90;;;;;;5080093;28;20271;-83
2021/07/18 05:42:02;;;;;;;10.03;6.90;;;17.70;99.90;;;;;;5097980;28;20520;-83
2021/07/18 05:44:29;;;;;;;8.93;7.10;;;17.70;99.90;;;;;;5067399;28;20284;-83
2021/07/18 05:46:55;;;;;;;10.03;6.67;;;17.80;99.90;;;;;;5092905;28;20188;-81
2021/07/18 05:49:20;;;;;;;10.37;6.63;;;17.90;99.90;;;;;;5062701;28;21034;-81
2021/07/18 05:51:46;;;;;;;8.53;7.17;;;18.00;99.90;;;;;;5073553;28;20239;-83
2021/07/18 05:54:12;;;;;;;11.03;6.93;;;18.10;99.90;;;;;;5076730;28;20762;-82
2021/07/18 05:56:38;;;;;;;9.10;7.00;;;18.20;99.90;;;;;;5098635;28;20200;-83
2021/07/18 05:59:04;;;;;;;7.43;6.13;;;18.40;99.90;;;;;;5097709;28;20211;-82
2021/07/18 06:01:29;;;;;;;8.67;6.40;;;18.60;99.90;;;;;;5096904;28;20700;-81
2021/07/18 06:03:55;;;;;;;8.43;6.10;;;18.70;99.90;;;;;;5080303;28;20664;-81
2021/07/18 06:06:21;;;;;;;7.30;4.90;;;18.90;99.90;;;;;;5057482;28;20189;-81
2021/07/18 06:08:47;;;;;;;5.93;5.27;;;19.10;99.90;;;;;;5076718;28;20203;-80
2021/07/18 06:11:13;;;;;;;6.50;4.93;;;19.20;99.90;;;;;;5074088;28;20450;-81
2021/07/18 06:13:38;;;;;;;7.87;5.13;;;19.40;99.90;;;;;;5053667;28;20188;-81
2021/07/18 06:16:05;;;;;;;5.00;4.40;;;19.60;99.90;;;;;;5080433;28;20220;-80
2021/07/18 06:18:31;;;;;;;6.90;4.47;;;19.80;99.90;;;;;;5060902;28;20918;-82
2021/07/18 06:20:56;;;;;;;7.50;5.03;;;19.90;99.90;;;;;;5073068;28;20427;-80
2021/07/18 06:23:22;;;;;;;5.70;5.00;;;20.00;99.90;;;;;;5080431;28;20188;-80
2021/07/18 06:25:48;;;;;;;5.17;4.67;;;20.20;99.90;;;;;;5066768;28;20216;-82
2021/07/18 06:28:13;;;;;;;6.17;3.90;;;20.30;99.90;;;;;;5095001;28;20211;-80
2021/07/18 06:30:39;;;;;;;9.30;4.50;;;20.30;99.90;;;;;;5074681;28;20212;-81
2021/07/18 06:33:05;;;;;;;7.60;4.10;;;20.50;99.90;;;;;;5080297;28;20188;-81
2021/07/18 06:35:31;;;;;;;4.93;3.80;;;20.50;99.90;;;;;;5056618;28;20455;-82
2021/07/18 06:37:56;;;;;;;4.40;3.80;;;20.60;99.90;;;;;;5089979;28;20191;-80
2021/07/18 06:40:22;;;;;;;6.53;4.53;;;20.80;99.90;;;;;;5062115;28;20210;-82
2021/07/18 06:42:48;;;;;;;6.67;3.33;;;20.80;99.90;;;;;;5096443;28;20630;-80
2021/07/18 06:45:14;;;;;;;7.00;3.20;;;20.90;99.90;;;;;;5065600;28;20405;-81
2021/07/18 06:47:40;;;;;;;3.90;3.40;;;21.00;99.90;;;;;;5062422;28;20196;-80
2021/07/18 06:50:06;;;;;;;3.63;2.93;;;21.00;99.90;;;;;;5091586;28;20276;-80
2021/07/18 06:52:32;;;;;;;4.27;3.23;;;21.20;99.90;;;;;;5089750;28;20841;-80
2021/07/18 06:54:58;;;;;;;5.20;3.10;;;21.30;99.90;;;;;;5063082;28;20507;-80
2021/07/18 06:57:23;;;;;;;5.97;3.50;;;21.40;99.90;;;;;;5054551;28;20210;-81
2021/07/18 06:59:49;;;;;;;3.40;3.00;;;21.40;99.90;;;;;;5079294;28;20183;-82
2021/07/18 07:02:15;;;;;;;3.10;2.90;;;21.40;99.90;;;;;;5067604;28;20185;-79
2021/07/18 07:04:41;;;;;;;3.30;2.90;;;21.40;99.90;;;;;;5096178;28;20204;-80
2021/07/18 07:07:07;;;;;;;8.30;2.97;;;21.40;99.90;;;;;;5076619;28;20423;-80
2021/07/18 07:09:33;;;;;;;3.90;2.47;;;21.50;99.90;;;;;;5095775;28;20461;-82
2021/07/18 07:11:59;;;;;;;2.50;2.30;;;21.60;99.90;;;;;;5090959;28;20454;-80
2021/07/18 07:14:25;;;;;;;2.80;2.30;;;21.60;99.90;;;;;;5077497;28;20204;-82
2021/07/18 07:16:51;;;;;;;5.37;2.60;;;21.70;99.90;;;;;;5061504;28;20192;-82
2021/07/18 07:19:16;;;;;;;2.90;2.23;;;21.80;99.90;;;;;;5098136;28;20220;-82
2021/07/18 07:21:42;;;;;;;3.07;2.70;;;21.80;99.90;;;;;;5084454;28;20181;-81
2021/07/18 07:24:08;;;;;;;3.43;2.73;;;21.90;99.90;;;;;;5078981;28;20199;-82
2021/07/18 07:26:34;;;;;;;3.80;2.70;;;21.90;99.90;;;;;;5084315;28;20188;-81
2021/07/18 07:29:01;;;;;;;3.60;2.60;;;22.00;99.90;;;;;;5097143;28;20203;-82
2021/07/18 07:31:26;;;;;;;2.97;2.67;;;22.00;99.90;;;;;;5094265;28;20452;-81
2021/07/18 07:33:52;;;;;;;5.50;2.67;;;21.90;99.90;;;;;;5100207;28;20458;-81
2021/07/18 07:36:18;;;;;;;3.40;2.60;;;22.10;99.90;;;;;;5059823;28;20224;-82
2021/07/18 07:38:45;;;;;;;3.47;2.40;;;22.10;99.90;;;;;;5072779;28;20544;-81
2021/07/18 07:41:11;;;;;;;3.20;2.90;;;22.20;99.90;;;;;;5078267;28;20418;-82
2021/07/18 07:43:36;;;;;;;4.40;2.63;;;22.10;99.90;;;;;;5078601;28;20461;-82
2021/07/18 07:46:03;;;;;;;2.80;2.40;;;22.20;99.90;;;;;;5081917;28;20446;-80
2021/07/18 07:48:29;;;;;;;2.70;2.10;;;22.20;99.90;;;;;;5055869;28;20192;-81
2021/07/18 07:50:57;;;;;;;2.33;2.10;;;22.20;99.90;;;;;;5072124;28;20446;-81
2021/07/18 07:53:23;;;;;;;3.30;2.50;;;22.30;99.90;;;;;;5083519;28;20187;-81
2021/07/18 07:55:49;;;;;;;2.30;2.10;;;22.30;99.90;;;;;;5094708;28;20467;-81
2021/07/18 07:58:14;;;;;;;3.47;2.60;;;22.30;99.90;;;;;;5088185;28;20435;-83
2021/07/18 08:00:40;;;;;;;3.10;2.57;;;22.40;99.90;;;;;;5096205;28;20184;-81
2021/07/18 08:03:06;;;;;;;7.30;3.20;;;22.40;99.90;;;;;;5079389;28;20245;-81
2021/07/18 08:05:32;;;;;;;4.13;2.70;;;22.30;99.90;;;;;;5076024;28;21006;-81
2021/07/18 08:07:57;;;;;;;2.47;2.13;;;22.20;99.90;;;;;;5078535;28;20954;-81
2021/07/18 08:10:24;;;;;;;4.17;2.43;;;22.30;99.90;;;;;;5045536;28;20191;-81
2021/07/18 08:12:50;;;;;;;4.10;2.50;;;22.30;99.90;;;;;;5096113;28;20180;-80
2021/07/18 08:15:17;;;;;;;2.53;2.33;;;22.30;99.90;;;;;;5078425;28;20568;-81
2021/07/18 08:17:43;;;;;;;3.87;2.37;;;22.20;99.90;;;;;;5078047;28;20463;-81
2021/07/18 08:20:15;;;;;;;3.80;2.80;;;22.00;99.90;;;;;;5076093;28;20426;-83
2021/07/18 08:22:42;;;;;;;3.20;2.70;;;21.90;99.90;;;;;;5092427;28;20410;-82
2021/07/18 08:25:08;;;;;;;5.40;3.00;;;21.90;99.90;;;;;;5073993;28;20533;-80
2021/07/18 08:27:35;;;;;;;6.70;3.13;;;21.80;99.90;;;;;;5095913;28;20487;-80
2021/07/18 08:30:02;;;;;;;2.80;2.40;;;21.70;99.90;;;;;;5061168;28;20411;-80
2021/07/18 08:32:28;;;;;;;6.20;2.93;;;21.70;99.90;;;;;;5098594;28;20458;-82
2021/07/18 08:34:54;;;;;;;2.43;2.20;;;21.70;99.90;;;;;;5075374;28;20435;-79
2021/07/18 08:37:19;;;;;;;2.70;2.37;;;21.80;99.90;;;;;;5047349;28;20239;-79
2021/07/18 08:39:45;;;;;;;2.70;2.50;;;21.90;99.90;;;;;;5078285;28;20188;-80
2021/07/18 08:42:13;;;;;;;2.70;2.40;;;22.10;99.90;;;;;;5094016;28;20206;-81
2021/07/18 08:44:39;;;;;;;3.17;2.53;;;22.30;99.90;;;;;;5094221;28;20208;-80
2021/07/18 08:47:05;;;;;;;3.60;2.90;;;22.40;99.90;;;;;;5074373;28;20542;-80
2021/07/18 08:49:31;;;;;;;2.97;2.67;;;22.50;99.90;;;;;;5089933;28;20417;-80
2021/07/18 08:51:57;;;;;;;2.50;2.30;;;22.50;99.90;;;;;;5066823;28;20548;-79
2021/07/18 08:54:26;;;;;;;4.20;2.60;;;22.50;99.90;;;;;;5057860;28;20785;-80
2021/07/18 08:56:55;;;;;;;3.47;2.80;;;22.60;99.90;;;;;;5078560;28;20230;-80
2021/07/18 08:59:22;;;;;;;4.77;2.40;;;22.60;99.90;;;;;;5092951;28;20485;-80
2021/07/18 09:01:47;;;;;;;3.13;2.70;;;22.80;99.90;;;;;;5094602;28;20426;-79
2021/07/18 09:04:13;;;;;;;2.57;2.37;;;22.90;99.90;;;;;;5082653;28;20441;-81
2021/07/18 09:06:52;;;;;;;5.43;2.43;;;23.00;99.90;;;;;;5058295;28;20185;-82
2021/07/18 09:09:20;;;;;;;3.00;2.77;;;23.00;99.90;;;;;;5056542;28;20188;-82
2021/07/18 09:12:00;;;;;;;2.70;2.50;;;23.10;99.90;;;;;;5064920;28;20447;-80
2021/07/18 09:14:45;;;;;;;3.37;2.77;;;23.20;99.90;;;;;;5058974;28;20465;-81
2021/07/18 09:17:17;;;;;;;2.70;2.47;;;23.40;99.90;;;;;;5054108;28;20434;-79
2021/07/18 09:19:44;;;;;;;2.57;2.37;;;23.50;99.90;;;;;;5051391;28;20473;-81
2021/07/18 09:22:15;;;;;;;2.97;2.67;;;23.60;99.90;;;;;;5091583;28;20430;-82
2021/07/18 09:24:47;;;;;;;3.33;2.70;;;23.70;99.90;;;;;;5087432;28;20486;-81
2021/07/18 09:27:15;;;;;;;2.90;2.57;;;23.90;99.90;;;;;;5093251;28;20426;-82
2021/07/18 09:29:54;;;;;;;4.10;2.40;;;24.00;99.90;;;;;;5088208;28;20415;-82
2021/07/18 09:32:21;;;;;;;3.17;2.40;;;24.10;99.90;;;;;;5073076;28;20455;-82
2021/07/18 09:34:56;;;;;;;3.10;2.50;;;24.20;99.90;;;;;;5077681;28;20460;-83
2021/07/18 09:37:27;;;;;;;4.23;2.67;;;24.40;99.90;;;;;;5061521;28;20454;-83
2021/07/18 09:39:58;;;;;;;4.00;2.60;;;24.50;99.90;;;;;;5089822;28;20437;-81
2021/07/18 09:42:35;;;;;;;3.23;2.43;;;24.60;99.90;;;;;;5065007;28;20466;-80
2021/07/18 09:45:04;;;;;;;3.00;2.70;;;24.70;99.90;;;;;;5092617;28;20584;-82
2021/07/18 09:47:30;;;;;;;3.10;2.70;;;24.80;99.90;;;;;;5078770;28;20422;-81
2021/07/18 09:49:55;;;;;;;3.07;2.77;;;24.80;99.90;;;;;;5076574;28;20431;-80
2021/07/18 09:52:23;;;;;;;2.70;2.50;;;24.80;99.90;;;;;;5040856;28;20213;-81
2021/07/18 09:54:50;;;;;;;2.57;2.37;;;25.00;99.90;;;;;;5073792;28;20204;-81
2021/07/18 09:57:36;;;;;;;3.17;2.87;;;25.10;99.90;;;;;;5065140;28;20423;-80
2021/07/18 10:00:05;;;;;;;4.00;2.90;;;25.30;99.90;;;;;;5093619;28;20430;-80
2021/07/18 10:02:32;;;;;;;2.90;2.70;;;25.40;99.90;;;;;;5058696;28;20454;-81
2021/07/18 10:04:58;;;;;;;2.63;2.43;;;25.50;99.90;;;;;;5084285;28;20446;-81
2021/07/18 10:07:31;;;;;;;5.03;3.33;;;25.50;99.90;;;;;;5087613;28;20804;-81
2021/07/18 10:09:57;;;;;;;2.30;2.10;;;25.50;99.90;;;;;;5052116;28;20466;-81
2021/07/18 10:12:23;;;;;;;3.00;2.70;;;25.50;99.90;;;;;;5085523;28;20450;-81
2021/07/18 10:14:48;;;;;;;5.83;2.77;;;25.60;99.90;;;;;;5095795;28;20282;-81
2021/07/18 10:17:14;;;;;;;3.77;2.60;;;25.70;99.90;;;;;;5094524;28;20422;-83
2021/07/18 10:19:40;;;;;;;2.50;2.30;;;25.70;99.90;;;;;;5074875;28;20249;-82
2021/07/18 10:22:07;;;;;;;4.27;3.00;;;25.90;99.90;;;;;;5061620;28;20433;-83
2021/07/18 10:24:34;;;;;;;2.33;2.13;;;25.90;99.90;;;;;;5075907;28;20753;-82
2021/07/18 10:27:02;;;;;;;3.20;2.90;;;26.00;99.90;;;;;;5096325;28;20422;-82
2021/07/18 10:29:32;;;;;;;2.87;2.57;;;26.00;99.90;;;;;;5078936;28;20979;-83
2021/07/18 10:32:07;;;;;;;2.83;2.63;;;26.10;99.90;;;;;;5061962;28;20558;-82
2021/07/18 10:34:35;;;;;;;2.93;2.70;;;26.20;99.90;;;;;;5096280;28;20507;-82
2021/07/18 10:37:03;;;;;;;3.17;2.97;;;26.30;99.90;;;;;;5095806;28;20421;-83
2021/07/18 10:39:35;;;;;;;3.33;2.80;;;26.30;99.90;;;;;;5076161;28;21036;-82
2021/07/18 10:42:04;;;;;;;3.00;2.67;;;26.40;99.90;;;;;;5092202;28;20474;-83
2021/07/18 10:44:39;;;;;;;2.80;2.60;;;26.30;99.90;;;;;;5074833;28;20459;-83
2021/07/18 10:47:05;;;;;;;3.37;2.60;;;26.30;99.90;;;;;;5096461;28;20443;-82
2021/07/18 10:49:53;;;;;;;2.83;2.63;;;26.40;99.90;;;;;;5095220;28;20426;-83
2021/07/18 10:52:30;;;;;;;2.83;2.53;;;26.50;99.90;;;;;;5082784;28;20245;-82
2021/07/18 10:54:56;;;;;;;4.20;2.77;;;26.50;99.90;;;;;;5103954;28;20527;-82
2021/07/18 10:57:33;;;;;;;2.77;2.50;;;26.60;99.90;;;;;;5100302;28;20422;-82
2021/07/18 11:00:19;;;;;;;2.93;2.57;;;26.50;99.90;;;;;;5084835;28;20188;-83
2021/07/18 11:02:45;;;;;;;3.80;2.60;;;26.50;99.90;;;;;;5096934;28;20425;-83
2021/07/18 11:05:16;;;;;;;3.27;3.00;;;26.70;99.90;;;;;;5078779;28;20459;-82
2021/07/18 11:07:51;;;;;;;4.10;2.80;;;26.70;99.90;;;;;;5096049;28;20220;-82
2021/07/18 11:10:19;;;;;;;3.30;2.80;;;26.70;99.90;;;;;;5078494;28;20429;-80
2021/07/18 11:12:58;;;;;;;2.47;2.27;;;26.80;99.90;;;;;;5076644;28;20411;-82
2021/07/18 11:15:38;;;;;;;3.10;2.83;;;26.90;99.90;;;;;;5080261;28;20932;-82
2021/07/18 11:18:14;;;;;;;3.00;2.70;;;26.90;99.90;;;;;;5097349;28;20501;-81
2021/07/18 11:20:42;;;;;;;3.20;3.00;;;26.90;99.90;;;;;;5095896;28;20501;-81
2021/07/18 11:23:09;;;;;;;8.30;3.50;;;27.00;99.90;;;;;;5084730;28;20411;-82
2021/07/18 11:25:52;;;;;;;10.43;4.10;;;27.10;99.90;;;;;;5094706;28;20848;-81
2021/07/18 11:28:30;;;;;;;10.40;3.20;;;27.20;99.90;;;;;;5079160;28;20779;-82
2021/07/18 11:31:12;;;;;;;8.33;3.90;;;27.30;99.90;;;;;;5084946;28;20453;-81
2021/07/18 11:33:40;;;;;;;6.50;3.63;;;27.30;99.90;;;;;;5095427;28;20421;-82
2021/07/18 11:36:07;;;;;;;3.73;3.37;;;27.30;99.90;;;;;;5081761;28;20439;-80
2021/07/18 11:38:33;;;;;;;3.30;3.07;;;27.40;99.90;;;;;;5095191;28;20411;-82
2021/07/18 11:40:59;;;;;;;5.57;3.43;;;27.50;99.90;;;;;;5078828;28;21031;-83
2021/07/18 11:43:25;;;;;;;4.93;3.30;;;27.50;99.90;;;;;;5078922;28;20418;-82
2021/07/18 11:45:53;;;;;;;3.80;3.00;;;27.50;99.90;;;;;;5097403;28;20237;-82
2021/07/18 11:48:22;;;;;;;3.83;3.30;;;27.50;99.90;;;;;;5097186;28;20185;-83
2021/07/18 11:50:49;;;;;;;3.60;3.27;;;27.50;99.90;;;;;;5096323;28;20486;-83
2021/07/18 11:53:18;;;;;;;7.33;3.40;;;27.50;99.90;;;;;;5046312;28;20430;-81
2021/07/18 11:55:44;;;;;;;3.90;2.80;;;27.50;99.90;;;;;;5093823;28;20487;-81
2021/07/18 11:58:09;;;;;;;4.10;3.40;;;27.40;99.90;;;;;;5071222;28;20612;-82
2021/07/18 12:00:51;;;;;;;6.20;3.33;;;27.30;99.90;;;;;;5098565;28;20189;-81
2021/07/18 12:03:18;;;;;;;4.10;2.90;;;27.30;99.90;;;;;;5087132;28;20259;-81
2021/07/18 12:05:44;;;;;;;3.20;2.90;;;27.40;99.90;;;;;;5100913;28;20442;-82
2021/07/18 12:08:10;;;;;;;3.77;3.07;;;27.50;99.90;;;;;;5102027;28;20450;-81
2021/07/18 12:10:35;;;;;;;3.87;3.20;;;27.60;99.90;;;;;;5081159;28;20207;-81
2021/07/18 12:13:01;;;;;;;4.07;2.90;;;27.70;99.90;;;;;;5082580;28;20903;-81
2021/07/18 12:15:27;;;;;;;5.37;3.37;;;27.60;99.90;;;;;;5101299;28;20201;-83
2021/07/18 12:18:03;;;;;;;3.10;2.70;;;27.50;99.90;;;;;;5099992;28;20192;-82
2021/07/18 12:20:29;;;;;;;3.77;2.80;;;27.50;99.90;;;;;;5099318;28;20184;-83
2021/07/18 12:23:09;;;;;;;4.27;2.80;;;27.60;99.90;;;;;;5099072;28;20423;-80
2021/07/18 12:25:34;;;;;;;2.90;2.60;;;27.60;99.90;;;;;;5097426;28;20226;-82
2021/07/18 12:28:00;;;;;;;4.10;2.63;;;27.60;99.90;;;;;;5076977;28;20415;-82
2021/07/18 12:30:26;;;;;;;4.40;2.67;;;27.70;99.90;;;;;;5057429;28;20539;-81
2021/07/18 12:32:52;;;;;;;4.93;3.03;;;27.70;99.90;;;;;;5080224;28;20212;-83
2021/07/18 12:35:18;;;;;;;3.30;3.00;;;27.60;99.90;;;;;;5098045;28;20211;-84
2021/07/18 12:37:45;;;;;;;2.97;2.50;;;27.60;99.90;;;;;;5068709;28;20427;-84
2021/07/18 12:40:11;;;;;;;2.97;2.67;;;27.60;99.90;;;;;;5076923;28;20188;-81
2021/07/18 12:42:44;;;;;;;2.77;2.30;;;27.70;99.90;;;;;;5095843;28;20438;-83
2021/07/18 12:45:19;;;;;;;4.10;2.70;;;27.70;99.90;;;;;;5078143;28;20534;-82